Time;durP1;ratioP1;P1;durP2;ratioP2;P2;SDS_P1;SDS_P2;PMS_P1;PMS_P2;Temp;Humidity;BMP_temperature;BMP_pressure;BME280_temperature;BME280_humidity;BME280_pressure;Samples;Min_cycle;Max_cycle;Signal;HPM_P1;HPM_P2
2023/07/18 00:00:00;;;;;;;13.20;7.55;;;18.10;99.90;;;;;;5085452;28;20025;-73
2023/07/18 00:02:26;;;;;;;11.43;7.68;;;18.00;99.90;;;;;;5083905;28;20084;-72
2023/07/18 00:04:54;;;;;;;9.50;7.22;;;18.00;99.90;;;;;;5084586;28;20020;-71
2023/07/18 00:07:20;;;;;;;9.73;7.13;;;18.00;99.90;;;;;;5085133;28;20100;-73
2023/07/18 00:09:45;;;;;;;11.32;7.45;;;18.00;99.90;;;;;;5082962;28;20099;-72
2023/07/18 00:12:11;;;;;;;9.90;6.45;;;17.90;99.90;;;;;;5081402;28;20392;-72
2023/07/18 00:14:37;;;;;;;9.68;6.15;;;17.90;99.90;;;;;;5079580;28;20594;-72
2023/07/18 00:17:02;;;;;;;9.40;6.72;;;17.90;99.90;;;;;;5089754;28;20543;-72
2023/07/18 00:19:29;;;;;;;13.13;7.05;;;17.90;99.90;;;;;;5081349;28;20032;-72
2023/07/18 00:21:56;;;;;;;9.40;6.35;;;17.90;99.90;;;;;;5083116;28;20078;-72
2023/07/18 00:24:21;;;;;;;8.38;5.88;;;17.90;99.90;;;;;;5082628;28;20032;-72
2023/07/18 00:26:47;;;;;;;7.75;6.53;;;17.90;99.90;;;;;;5081110;28;20040;-72
2023/07/18 00:29:12;;;;;;;7.15;5.32;;;17.80;99.90;;;;;;5087033;28;20060;-72
2023/07/18 00:31:38;;;;;;;10.23;5.57;;;17.80;99.90;;;;;;5081680;28;20123;-72
2023/07/18 00:34:06;;;;;;;8.57;6.68;;;17.80;99.90;;;;;;5084768;28;20073;-72
2023/07/18 00:36:31;;;;;;;12.15;6.32;;;17.70;99.90;;;;;;5083676;28;20028;-72
2023/07/18 00:38:57;;;;;;;9.43;6.00;;;17.70;99.90;;;;;;5080861;28;20020;-72
2023/07/18 00:41:23;;;;;;;9.45;5.50;;;17.70;99.90;;;;;;5083938;28;20546;-72
2023/07/18 00:43:49;;;;;;;9.40;6.05;;;17.60;99.90;;;;;;5081826;28;20028;-72
2023/07/18 00:46:15;;;;;;;10.82;6.00;;;17.60;99.90;;;;;;5083290;28;20024;-72
2023/07/18 00:48:41;;;;;;;10.05;5.45;;;17.60;99.90;;;;;;5082532;28;20021;-72
2023/07/18 00:51:07;;;;;;;7.50;5.47;;;17.60;99.90;;;;;;5082573;28;20123;-72
2023/07/18 00:53:35;;;;;;;9.13;5.90;;;17.60;99.90;;;;;;5082340;28;20043;-72
2023/07/18 00:56:02;;;;;;;12.73;5.43;;;17.50;99.90;;;;;;5079801;28;20028;-72
2023/07/18 00:58:29;;;;;;;10.70;6.15;;;17.50;99.90;;;;;;5084619;28;20039;-72
2023/07/18 01:00:55;;;;;;;11.65;6.18;;;17.40;99.90;;;;;;5083034;28;20039;-72
2023/07/18 01:03:22;;;;;;;12.25;5.93;;;17.40;99.90;;;;;;5081494;28;20049;-72
2023/07/18 01:05:48;;;;;;;9.10;6.57;;;17.40;99.90;;;;;;5088360;28;20020;-72
2023/07/18 01:08:13;;;;;;;10.63;6.25;;;17.30;99.90;;;;;;5086594;28;20024;-72
2023/07/18 01:10:40;;;;;;;8.02;6.93;;;17.30;99.90;;;;;;5084317;28;20021;-72
2023/07/18 01:13:06;;;;;;;8.77;6.63;;;17.30;99.90;;;;;;5082808;28;20063;-72
2023/07/18 01:15:33;;;;;;;15.43;7.30;;;17.20;99.90;;;;;;5088907;28;20058;-72
2023/07/18 01:18:02;;;;;;;7.00;5.80;;;17.20;99.90;;;;;;5082896;28;22064;-71
2023/07/18 01:20:28;;;;;;;12.63;6.55;;;17.10;99.90;;;;;;5082614;28;20036;-72
2023/07/18 01:22:57;;;;;;;8.80;6.10;;;17.10;99.90;;;;;;5086595;28;20525;-73
2023/07/18 01:25:23;;;;;;;7.50;6.20;;;17.10;99.90;;;;;;5085539;28;20026;-72
2023/07/18 01:27:50;;;;;;;8.70;5.35;;;17.10;99.90;;;;;;5084102;28;20040;-72
2023/07/18 01:30:19;;;;;;;7.70;5.65;;;17.10;99.90;;;;;;5089953;28;20030;-72
2023/07/18 01:32:48;;;;;;;13.38;5.65;;;17.10;99.90;;;;;;5080540;28;20114;-72
2023/07/18 01:35:15;;;;;;;12.95;6.80;;;17.00;99.90;;;;;;5084185;28;20012;-72
2023/07/18 01:37:44;;;;;;;10.05;6.85;;;17.00;99.90;;;;;;5086162;28;20381;-71
2023/07/18 01:40:15;;;;;;;13.85;7.25;;;17.00;99.90;;;;;;5092875;28;20023;-72
2023/07/18 01:42:42;;;;;;;14.20;7.28;;;17.00;99.90;;;;;;5087300;28;20063;-72
2023/07/18 01:45:09;;;;;;;12.40;7.00;;;16.90;99.90;;;;;;5080801;28;20115;-72
2023/07/18 01:47:36;;;;;;;6.47;5.40;;;16.90;99.90;;;;;;5085743;28;20020;-72
2023/07/18 01:50:04;;;;;;;8.82;5.53;;;16.90;99.90;;;;;;5087095;28;20393;-72
2023/07/18 01:52:31;;;;;;;7.85;5.85;;;16.80;99.90;;;;;;5086371;28;20550;-72
2023/07/18 01:55:00;;;;;;;12.52;6.60;;;16.80;99.90;;;;;;5086170;28;20399;-72
2023/07/18 01:57:43;;;;;;;11.00;6.53;;;16.80;99.90;;;;;;5083573;28;20127;-73
2023/07/18 02:00:11;;;;;;;8.60;6.22;;;16.70;99.90;;;;;;5082174;28;20150;-72
2023/07/18 02:02:40;;;;;;;11.52;6.78;;;16.70;99.90;;;;;;5078380;28;20490;-72
2023/07/18 02:05:07;;;;;;;10.38;6.55;;;16.70;99.90;;;;;;5082412;28;20027;-72
2023/07/18 02:07:33;;;;;;;9.80;6.32;;;16.60;99.90;;;;;;5086570;28;20020;-72
2023/07/18 02:10:00;;;;;;;7.60;5.97;;;16.60;99.90;;;;;;5079891;28;20494;-72
2023/07/18 02:12:26;;;;;;;10.55;6.50;;;16.60;99.90;;;;;;5082782;28;20125;-72
2023/07/18 02:14:52;;;;;;;11.82;5.57;;;16.50;99.90;;;;;;5079987;28;20088;-72
2023/07/18 02:17:18;;;;;;;9.05;5.97;;;16.60;99.90;;;;;;5081258;28;20126;-72
2023/07/18 02:19:43;;;;;;;9.05;5.53;;;16.50;99.90;;;;;;5085159;28;20060;-71
2023/07/18 02:22:09;;;;;;;6.88;5.70;;;16.50;99.90;;;;;;5079179;28;20024;-72
2023/07/18 02:24:35;;;;;;;7.38;5.43;;;16.50;99.90;;;;;;5082891;28;20029;-71
2023/07/18 02:27:00;;;;;;;11.50;5.65;;;16.50;99.90;;;;;;5077801;28;20048;-72
2023/07/18 02:29:26;;;;;;;7.22;4.97;;;16.50;99.90;;;;;;5083190;28;20032;-72
2023/07/18 02:31:52;;;;;;;7.88;5.45;;;16.40;99.90;;;;;;5082533;28;20040;-72
2023/07/18 02:34:19;;;;;;;8.73;5.35;;;16.40;99.90;;;;;;5080473;28;20031;-72
2023/07/18 02:36:45;;;;;;;9.10;4.82;;;16.40;99.90;;;;;;5083166;28;20477;-73
2023/07/18 02:39:11;;;;;;;6.60;4.95;;;16.40;99.90;;;;;;5081798;28;20013;-71
2023/07/18 02:41:37;;;;;;;7.22;5.18;;;16.40;99.90;;;;;;5087612;28;20027;-71
2023/07/18 02:44:04;;;;;;;9.00;5.20;;;16.30;99.90;;;;;;5079828;28;20020;-71
2023/07/18 02:46:29;;;;;;;10.25;4.78;;;16.30;99.90;;;;;;5078876;28;20210;-72
2023/07/18 02:48:55;;;;;;;7.85;4.70;;;16.30;99.90;;;;;;5080904;28;20103;-72
2023/07/18 02:51:21;;;;;;;8.88;4.75;;;16.30;99.90;;;;;;5082272;28;20473;-72
2023/07/18 02:53:49;;;;;;;8.43;4.85;;;16.20;99.90;;;;;;5079224;28;20486;-72
2023/07/18 02:56:15;;;;;;;6.72;5.03;;;16.20;99.90;;;;;;5083777;28;20537;-72
2023/07/18 02:58:41;;;;;;;6.00;4.68;;;16.20;99.90;;;;;;5088601;28;20376;-71
2023/07/18 03:01:07;;;;;;;5.38;4.80;;;16.20;99.90;;;;;;5081207;28;20016;-71
2023/07/18 03:03:40;;;;;;;10.02;5.00;;;16.10;99.90;;;;;;5080758;28;20453;-71
2023/07/18 03:06:07;;;;;;;7.10;5.05;;;16.10;99.90;;;;;;5082271;28;20027;-71
2023/07/18 03:08:33;;;;;;;6.93;4.65;;;16.10;99.90;;;;;;5079606;28;20020;-71
2023/07/18 03:11:03;;;;;;;6.18;5.47;;;16.10;99.90;;;;;;5079234;28;20369;-71
2023/07/18 03:13:30;;;;;;;5.10;4.18;;;16.10;99.90;;;;;;5079726;28;20495;-72
2023/07/18 03:15:55;;;;;;;7.07;4.65;;;16.00;99.90;;;;;;5074450;28;20108;-72
2023/07/18 03:18:21;;;;;;;7.82;4.57;;;16.00;99.90;;;;;;5081217;28;20103;-72
2023/07/18 03:20:47;;;;;;;8.10;4.70;;;15.90;99.90;;;;;;5084530;28;20031;-72
2023/07/18 03:23:13;;;;;;;7.30;4.55;;;16.00;99.90;;;;;;5080205;28;20499;-71
2023/07/18 03:25:39;;;;;;;5.53;4.38;;;16.00;99.90;;;;;;5079432;28;20071;-72
2023/07/18 03:28:04;;;;;;;5.88;3.83;;;15.90;99.90;;;;;;5082344;28;20028;-73
2023/07/18 03:30:30;;;;;;;5.63;5.07;;;16.00;99.90;;;;;;5079522;28;20036;-71
2023/07/18 03:32:56;;;;;;;5.70;4.20;;;15.90;99.90;;;;;;5073465;28;20024;-72
2023/07/18 03:35:22;;;;;;;7.95;4.68;;;15.90;99.90;;;;;;5085188;28;20029;-72
2023/07/18 03:37:47;;;;;;;10.50;4.97;;;15.90;99.90;;;;;;5076943;28;20452;-72
2023/07/18 03:40:15;;;;;;;7.57;4.50;;;15.80;99.90;;;;;;5086441;28;20149;-74
2023/07/18 03:42:42;;;;;;;7.93;4.90;;;15.80;99.90;;;;;;5077999;28;20021;-72
2023/07/18 03:45:10;;;;;;;7.25;4.47;;;15.80;99.90;;;;;;5078328;28;20028;-71
2023/07/18 03:47:37;;;;;;;6.20;4.50;;;15.80;99.90;;;;;;5086759;28;20381;-73
2023/07/18 03:50:03;;;;;;;6.78;4.32;;;15.80;99.90;;;;;;5080019;28;20021;-72
2023/07/18 03:52:28;;;;;;;6.85;4.43;;;15.80;99.90;;;;;;5080764;28;20089;-71
2023/07/18 03:54:54;;;;;;;7.50;4.22;;;15.70;99.90;;;;;;5082037;28;20012;-72
2023/07/18 03:57:20;;;;;;;6.53;4.22;;;15.70;99.90;;;;;;5085267;28;20039;-73
2023/07/18 03:59:45;;;;;;;5.25;4.28;;;15.70;99.90;;;;;;5081046;28;20051;-74
2023/07/18 04:02:14;;;;;;;7.38;4.57;;;15.60;99.90;;;;;;5077585;28;20032;-73
2023/07/18 04:04:41;;;;;;;10.70;4.80;;;15.60;99.90;;;;;;5080446;28;20023;-74
2023/07/18 04:07:07;;;;;;;8.40;4.88;;;15.60;99.90;;;;;;5084955;28;20028;-72
2023/07/18 04:09:33;;;;;;;8.98;5.05;;;15.60;99.90;;;;;;5080233;28;20081;-72
2023/07/18 04:11:59;;;;;;;8.68;4.50;;;15.60;99.90;;;;;;5081666;28;20032;-73
2023/07/18 04:14:24;;;;;;;13.15;4.63;;;15.60;99.90;;;;;;5088542;28;20099;-71
2023/07/18 04:16:51;;;;;;;8.38;4.63;;;15.50;99.90;;;;;;5084981;28;20032;-73
2023/07/18 04:19:17;;;;;;;7.97;4.70;;;15.50;99.90;;;;;;5085318;28;20017;-72
2023/07/18 04:21:42;;;;;;;7.55;4.05;;;15.50;99.90;;;;;;5078863;28;20033;-72
2023/07/18 04:24:08;;;;;;;6.32;4.43;;;15.50;99.90;;;;;;5081480;28;20089;-73
2023/07/18 04:26:34;;;;;;;7.35;4.43;;;15.50;99.90;;;;;;5081439;28;20028;-79
2023/07/18 04:29:00;;;;;;;6.45;4.20;;;15.50;99.90;;;;;;5085762;28;20525;-73
2023/07/18 04:31:26;;;;;;;9.13;4.80;;;15.50;99.90;;;;;;5089291;28;20033;-72
2023/07/18 04:33:51;;;;;;;5.40;4.53;;;15.50;99.90;;;;;;5080799;28;20024;-72
2023/07/18 04:36:17;;;;;;;7.20;4.60;;;15.50;99.90;;;;;;5083815;28;20024;-72
2023/07/18 04:38:44;;;;;;;8.50;4.28;;;15.40;99.90;;;;;;5091714;28;20008;-76
2023/07/18 04:41:10;;;;;;;9.80;4.40;;;15.50;99.90;;;;;;5083637;28;20541;-72
2023/07/18 04:43:35;;;;;;;7.45;4.30;;;15.50;99.90;;;;;;5079242;28;20111;-74
2023/07/18 04:46:01;;;;;;;8.30;4.38;;;15.40;99.90;;;;;;5083197;28;20466;-74
2023/07/18 04:48:26;;;;;;;5.40;4.75;;;15.40;99.90;;;;;;5086202;28;20024;-73
2023/07/18 04:51:00;;;;;;;10.00;5.13;;;15.40;99.90;;;;;;5087252;28;20050;-72
2023/07/18 04:53:27;;;;;;;7.03;4.75;;;15.40;99.90;;;;;;5083061;28;20032;-71
2023/07/18 04:55:54;;;;;;;9.45;4.82;;;15.50;99.90;;;;;;5081803;28;20551;-72
2023/07/18 04:58:20;;;;;;;9.40;4.53;;;15.50;99.90;;;;;;5085521;28;20070;-71
2023/07/18 05:00:46;;;;;;;7.60;4.70;;;15.50;99.90;;;;;;5081478;28;20028;-71
2023/07/18 05:03:11;;;;;;;9.20;4.40;;;15.50;99.90;;;;;;5080161;28;20020;-74
2023/07/18 05:05:37;;;;;;;8.52;5.03;;;15.50;99.90;;;;;;5078057;28;20099;-73
2023/07/18 05:08:03;;;;;;;8.23;4.30;;;15.50;99.90;;;;;;5083265;28;20415;-72
2023/07/18 05:10:29;;;;;;;10.52;4.45;;;15.50;99.90;;;;;;5077810;28;20055;-71
2023/07/18 05:12:56;;;;;;;8.27;3.92;;;15.50;99.90;;;;;;5082073;28;20480;-72
2023/07/18 05:15:22;;;;;;;9.18;4.10;;;15.60;99.90;;;;;;5085365;28;20054;-71
2023/07/18 05:17:48;;;;;;;11.43;4.72;;;15.60;99.90;;;;;;5081665;28;20496;-71
2023/07/18 05:20:14;;;;;;;6.90;4.07;;;15.60;99.90;;;;;;5080120;28;20016;-73
2023/07/18 05:22:41;;;;;;;5.68;4.00;;;15.70;99.90;;;;;;5087357;28;20543;-74
2023/07/18 05:25:07;;;;;;;12.52;4.45;;;15.70;99.90;;;;;;5084781;28;20024;-72
2023/07/18 05:27:33;;;;;;;6.05;4.25;;;15.70;99.90;;;;;;5082714;28;20357;-73
2023/07/18 05:29:59;;;;;;;6.93;4.50;;;15.70;99.90;;;;;;5086130;28;20110;-72
2023/07/18 05:32:25;;;;;;;9.07;4.88;;;15.70;99.90;;;;;;5083860;28;20127;-72
2023/07/18 05:34:50;;;;;;;9.02;4.25;;;15.70;99.90;;;;;;5078612;28;20295;-73
2023/07/18 05:37:16;;;;;;;5.70;3.40;;;15.70;99.90;;;;;;5083110;28;20473;-71
2023/07/18 05:39:42;;;;;;;6.32;4.07;;;15.70;99.90;;;;;;5080878;28;20025;-72
2023/07/18 05:42:08;;;;;;;7.47;4.22;;;15.80;99.90;;;;;;5082547;28;20078;-73
2023/07/18 05:44:33;;;;;;;10.45;4.45;;;15.80;99.90;;;;;;5081699;28;20028;-73
2023/07/18 05:46:59;;;;;;;11.38;4.00;;;15.80;99.90;;;;;;5086037;28;20025;-73
2023/07/18 05:49:26;;;;;;;8.38;4.10;;;15.80;99.90;;;;;;5081612;28;20020;-72
2023/07/18 05:51:52;;;;;;;9.52;4.30;;;15.90;99.90;;;;;;5081584;28;20040;-72
2023/07/18 05:54:18;;;;;;;7.65;3.78;;;15.90;99.90;;;;;;5083010;28;20012;-71
2023/07/18 05:56:44;;;;;;;7.10;3.63;;;15.90;99.90;;;;;;5078963;28;20036;-71
2023/07/18 05:59:09;;;;;;;6.47;3.15;;;15.90;99.90;;;;;;5077437;28;20028;-74
2023/07/18 06:01:35;;;;;;;6.95;3.50;;;15.90;99.90;;;;;;5075257;28;20028;-74
2023/07/18 06:04:01;;;;;;;8.25;3.33;;;15.90;99.90;;;;;;5081841;28;20476;-74
2023/07/18 06:06:27;;;;;;;4.90;3.30;;;16.00;99.90;;;;;;5075432;28;20028;-72
2023/07/18 06:08:52;;;;;;;6.68;3.22;;;16.00;99.90;;;;;;5081317;28;20492;-72
2023/07/18 06:11:21;;;;;;;5.88;2.90;;;16.00;99.90;;;;;;5077603;28;20037;-75
2023/07/18 06:13:49;;;;;;;7.57;3.42;;;16.00;99.90;;;;;;5078497;28;20107;-73
2023/07/18 06:16:14;;;;;;;8.25;3.70;;;16.10;99.90;;;;;;5084936;28;20481;-73
2023/07/18 06:18:43;;;;;;;5.70;3.08;;;16.10;99.90;;;;;;5080504;28;20035;-74
2023/07/18 06:21:08;;;;;;;6.38;3.22;;;16.10;99.90;;;;;;5078919;28;20025;-72
2023/07/18 06:23:34;;;;;;;6.20;3.13;;;16.20;99.90;;;;;;5079311;28;20377;-73
2023/07/18 06:26:00;;;;;;;9.20;3.75;;;16.20;99.90;;;;;;5083056;28;20020;-74
2023/07/18 06:28:26;;;;;;;7.57;3.50;;;16.30;99.90;;;;;;5077229;28;20089;-74
2023/07/18 06:30:55;;;;;;;5.38;3.45;;;16.30;99.90;;;;;;5077860;28;20119;-74
2023/07/18 06:33:22;;;;;;;7.18;3.75;;;16.40;99.90;;;;;;5078410;28;20102;-75
2023/07/18 06:35:52;;;;;;;7.43;3.60;;;16.40;99.90;;;;;;5079573;28;20025;-75
2023/07/18 06:38:17;;;;;;;8.75;3.08;;;16.40;99.90;;;;;;5081910;28;20027;-74
2023/07/18 06:40:45;;;;;;;7.55;2.78;;;16.40;99.90;;;;;;5074849;28;20375;-75
2023/07/18 06:43:11;;;;;;;6.43;2.95;;;16.40;99.90;;;;;;5075985;28;20532;-75
2023/07/18 06:45:37;;;;;;;5.57;2.85;;;16.40;99.90;;;;;;5080725;28;20115;-76
2023/07/18 06:48:03;;;;;;;7.82;2.60;;;16.60;99.90;;;;;;5081548;28;20027;-74
2023/07/18 06:50:29;;;;;;;7.05;2.65;;;16.60;99.90;;;;;;5080758;28;20111;-75
2023/07/18 06:52:55;;;;;;;4.55;2.28;;;16.70;99.90;;;;;;5082304;28;20031;-75
2023/07/18 06:55:21;;;;;;;9.23;2.90;;;16.80;99.90;;;;;;5084757;28;20028;-74
2023/07/18 06:57:46;;;;;;;5.22;2.50;;;16.80;99.90;;;;;;5088424;28;20362;-75
2023/07/18 07:00:12;;;;;;;3.97;2.15;;;16.90;99.90;;;;;;5089249;28;20028;-74
2023/07/18 07:02:38;;;;;;;5.72;2.08;;;17.00;99.90;;;;;;5082411;28;20035;-75
2023/07/18 07:05:04;;;;;;;7.50;2.55;;;17.20;99.90;;;;;;5077822;28;20028;-75
2023/07/18 07:07:30;;;;;;;5.55;1.88;;;17.20;99.90;;;;;;5081550;28;20123;-75
2023/07/18 07:09:56;;;;;;;5.35;2.08;;;17.30;99.90;;;;;;5077988;28;20123;-74
2023/07/18 07:12:22;;;;;;;4.70;1.90;;;17.40;99.90;;;;;;5083509;28;20035;-75
2023/07/18 07:14:47;;;;;;;6.22;2.13;;;17.50;99.90;;;;;;5086076;28;20381;-75
2023/07/18 07:17:13;;;;;;;4.72;1.40;;;17.70;99.90;;;;;;5072855;28;20038;-76
2023/07/18 07:19:39;;;;;;;5.80;1.95;;;17.80;99.90;;;;;;5078454;28;20423;-75
2023/07/18 07:22:05;;;;;;;2.95;1.63;;;17.90;99.90;;;;;;5076827;28;20028;-74
2023/07/18 07:24:31;;;;;;;8.93;2.00;;;18.20;99.90;;;;;;5078804;28;20456;-75
2023/07/18 07:26:56;;;;;;;4.63;2.00;;;18.30;99.90;;;;;;5080686;28;20120;-74
2023/07/18 07:29:22;;;;;;;6.07;1.40;;;18.40;99.90;;;;;;5079335;28;20499;-75
2023/07/18 07:31:48;;;;;;;9.75;2.28;;;18.40;99.90;;;;;;5074294;28;20029;-74
2023/07/18 07:34:13;;;;;;;2.35;1.60;;;18.40;99.90;;;;;;5080108;28;20038;-74
2023/07/18 07:36:39;;;;;;;6.63;1.38;;;18.50;99.90;;;;;;5080149;28;20029;-74
2023/07/18 07:39:04;;;;;;;4.22;1.30;;;18.60;99.90;;;;;;5078700;28;20381;-74
2023/07/18 07:41:30;;;;;;;5.57;1.40;;;18.70;99.90;;;;;;5078623;28;20048;-74
2023/07/18 07:43:56;;;;;;;3.05;1.50;;;18.80;99.90;;;;;;5079405;28;20024;-73
2023/07/18 07:46:22;;;;;;;3.90;1.30;;;18.90;99.90;;;;;;5083620;28;20119;-73
2023/07/18 07:48:47;;;;;;;2.10;1.23;;;19.00;99.90;;;;;;5078418;28;20057;-74
2023/07/18 07:51:15;;;;;;;5.15;1.63;;;19.10;99.90;;;;;;5087166;28;20027;-74
2023/07/18 07:53:41;;;;;;;2.92;1.20;;;19.30;99.90;;;;;;5079456;28;20103;-74
2023/07/18 07:56:07;;;;;;;8.27;1.33;;;19.50;99.90;;;;;;5086098;28;20484;-74
2023/07/18 07:58:33;;;;;;;2.60;1.35;;;19.50;99.90;;;;;;5082511;28;20048;-74
2023/07/18 08:00:59;;;;;;;3.92;1.50;;;19.60;99.90;;;;;;5086968;28;20027;-74
2023/07/18 08:03:24;;;;;;;2.35;1.00;;;19.80;99.90;;;;;;5081105;28;20040;-74
2023/07/18 08:05:50;;;;;;;4.07;1.08;;;19.90;99.90;;;;;;5085234;28;20614;-74
2023/07/18 08:08:17;;;;;;;3.50;1.35;;;20.00;99.90;;;;;;5084564;28;20030;-74
2023/07/18 08:10:43;;;;;;;2.85;0.77;;;19.90;99.90;;;;;;5085510;28;20020;-73
2023/07/18 08:13:10;;;;;;;3.55;1.13;;;19.90;99.90;;;;;;5082635;28;20063;-73
2023/07/18 08:15:35;;;;;;;2.17;0.85;;;19.90;99.90;;;;;;5083771;28;20021;-72
2023/07/18 08:18:01;;;;;;;2.45;1.15;;;20.00;99.90;;;;;;5084579;28;20025;-73
2023/07/18 08:20:27;;;;;;;1.60;0.90;;;20.10;99.90;;;;;;5082402;28;20028;-72
2023/07/18 08:22:54;;;;;;;1.33;0.68;;;20.30;99.90;;;;;;5085245;28;20095;-72
2023/07/18 08:25:20;;;;;;;0.57;0.57;;;20.40;99.90;;;;;;5085276;28;20021;-72
2023/07/18 08:27:45;;;;;;;4.22;1.13;;;20.60;99.90;;;;;;5080882;28;20075;-72
2023/07/18 08:30:11;;;;;;;1.30;0.60;;;20.70;99.90;;;;;;5082329;28;20028;-72
2023/07/18 08:32:38;;;;;;;3.65;0.90;;;20.80;99.90;;;;;;5083062;28;20078;-73
2023/07/18 08:35:05;;;;;;;2.38;0.93;;;21.00;99.90;;;;;;5085853;28;20089;-73
2023/07/18 08:37:30;;;;;;;2.35;0.80;;;21.00;99.90;;;;;;5084335;28;20031;-73
2023/07/18 08:39:56;;;;;;;3.20;1.20;;;21.20;99.90;;;;;;5083795;28;20024;-72
2023/07/18 08:42:26;;;;;;;1.55;0.75;;;21.30;99.90;;;;;;5081294;28;20028;-72
2023/07/18 08:44:53;;;;;;;2.67;0.88;;;21.40;99.90;;;;;;5089478;28;20474;-73
2023/07/18 08:47:21;;;;;;;2.10;0.98;;;21.30;99.90;;;;;;5080041;28;20634;-73
2023/07/18 08:49:47;;;;;;;2.05;0.77;;;21.20;99.90;;;;;;5085429;28;20394;-72
2023/07/18 08:52:13;;;;;;;3.53;1.25;;;21.30;99.90;;;;;;5084146;28;20038;-73
2023/07/18 08:54:38;;;;;;;2.35;0.60;;;21.30;99.90;;;;;;5087453;28;20028;-74
2023/07/18 08:57:05;;;;;;;3.30;0.60;;;21.60;99.90;;;;;;5080250;28;20055;-74
2023/07/18 08:59:31;;;;;;;1.85;0.80;;;21.70;99.90;;;;;;5090821;28;20036;-73
2023/07/18 09:01:57;;;;;;;4.50;0.80;;;21.80;99.90;;;;;;5080877;28;20483;-73
2023/07/18 09:04:23;;;;;;;3.63;0.98;;;21.80;99.90;;;;;;5081965;28;20069;-74
2023/07/18 09:07:00;;;;;;;2.17;0.85;;;21.80;99.90;;;;;;5092741;28;20039;-73
2023/07/18 09:09:26;;;;;;;2.95;0.73;;;21.80;99.90;;;;;;5086823;28;20025;-73
2023/07/18 09:12:03;;;;;;;3.65;1.05;;;21.80;99.90;;;;;;5081954;28;20081;-73
2023/07/18 09:14:32;;;;;;;3.75;0.90;;;21.90;99.90;;;;;;5085612;28;20016;-73
2023/07/18 09:17:00;;;;;;;1.63;0.82;;;22.10;99.90;;;;;;5080731;28;20027;-73
2023/07/18 09:19:37;;;;;;;0.93;0.70;;;22.20;99.90;;;;;;5076188;28;20028;-73
2023/07/18 09:22:04;;;;;;;4.25;1.00;;;22.20;99.90;;;;;;5081683;28;20052;-73
2023/07/18 09:24:31;;;;;;;3.22;0.90;;;22.10;99.90;;;;;;5091183;28;20020;-73
2023/07/18 09:26:57;;;;;;;1.65;0.90;;;21.80;99.90;;;;;;5083719;28;20381;-72
2023/07/18 09:29:25;;;;;;;1.80;0.95;;;21.70;99.90;;;;;;5081728;28;20402;-73
2023/07/18 09:31:51;;;;;;;1.33;0.80;;;21.60;99.90;;;;;;5086874;28;20032;-73
2023/07/18 09:34:18;;;;;;;1.88;0.73;;;21.50;99.90;;;;;;5085160;28;20488;-73
2023/07/18 09:37:03;;;;;;;1.77;0.90;;;21.40;99.90;;;;;;5082363;28;20024;-71
2023/07/18 09:39:29;;;;;;;3.05;0.90;;;21.40;99.90;;;;;;5083333;28;20044;-72
2023/07/18 09:41:56;;;;;;;2.90;0.93;;;21.40;99.90;;;;;;5081536;28;20125;-74
2023/07/18 09:44:26;;;;;;;2.05;1.00;;;21.40;99.90;;;;;;5091686;28;20120;-73
2023/07/18 09:46:52;;;;;;;2.35;0.80;;;21.50;99.90;;;;;;5086016;28;20016;-72
2023/07/18 09:49:19;;;;;;;5.50;0.70;;;21.60;99.90;;;;;;5084581;28;20107;-73
2023/07/18 09:52:00;;;;;;;1.52;0.90;;;21.60;99.90;;;;;;5081668;28;20105;-72
2023/07/18 09:54:27;;;;;;;2.38;0.60;;;21.80;99.90;;;;;;5086011;28;20016;-74
2023/07/18 09:56:57;;;;;;;2.03;0.70;;;21.70;99.90;;;;;;5080687;28;20468;-75
2023/07/18 09:59:23;;;;;;;2.17;1.00;;;21.80;99.90;;;;;;5082116;28;20113;-75
2023/07/18 10:01:51;;;;;;;4.35;0.85;;;22.00;99.90;;;;;;5082934;28;20032;-74
2023/07/18 10:04:18;;;;;;;2.30;0.70;;;22.00;99.90;;;;;;5078797;28;20020;-73
2023/07/18 10:06:46;;;;;;;3.20;0.95;;;22.00;99.90;;;;;;5085692;28;20024;-74
2023/07/18 10:09:12;;;;;;;1.65;0.95;;;21.90;99.90;;;;;;5083065;28;20028;-73
2023/07/18 10:12:03;;;;;;;2.80;0.98;;;22.10;99.90;;;;;;5083102;28;20028;-74
2023/07/18 10:14:29;;;;;;;4.00;1.00;;;22.30;99.90;;;;;;5078585;28;20043;-73
2023/07/18 10:17:05;;;;;;;1.73;0.70;;;22.40;99.90;;;;;;5081229;28;20021;-73
2023/07/18 10:19:45;;;;;;;0.90;0.60;;;22.50;99.90;;;;;;5082071;28;20408;-72
2023/07/18 10:22:11;;;;;;;1.23;0.70;;;22.60;99.90;;;;;;5080542;28;20016;-72
2023/07/18 10:24:36;;;;;;;1.85;0.68;;;22.80;99.90;;;;;;5079234;28;20031;-72
2023/07/18 10:27:09;;;;;;;0.70;0.60;;;22.80;99.90;;;;;;5083176;28;20024;-72
2023/07/18 10:29:41;;;;;;;4.00;1.70;;;22.70;99.90;;;;;;5087069;28;20028;-72
2023/07/18 10:32:11;;;;;;;2.83;1.00;;;22.70;99.90;;;;;;5090265;28;20071;-73
2023/07/18 10:34:37;;;;;;;3.80;0.82;;;22.70;99.90;;;;;;5079153;28;20067;-74
2023/07/18 10:37:07;;;;;;;1.67;0.50;;;22.90;99.90;;;;;;5080753;28;20027;-74
2023/07/18 10:39:38;;;;;;;2.15;1.15;;;22.90;99.90;;;;;;5081938;28;20186;-73
2023/07/18 10:42:05;;;;;;;2.65;1.10;;;22.80;99.90;;;;;;5077178;28;20028;-72
2023/07/18 10:44:31;;;;;;;3.65;0.85;;;22.70;99.90;;;;;;5080273;28;20678;-72
2023/07/18 10:46:56;;;;;;;1.20;0.50;;;22.90;99.90;;;;;;5078760;28;20031;-72
2023/07/18 10:49:26;;;;;;;1.50;0.63;;;22.80;99.90;;;;;;5078579;28;20036;-73
2023/07/18 10:51:54;;;;;;;2.33;0.88;;;22.80;99.90;;;;;;5081353;28;20035;-72
2023/07/18 10:54:20;;;;;;;1.40;0.50;;;22.80;99.90;;;;;;5083364;28;20012;-71
2023/07/18 10:56:48;;;;;;;3.30;0.70;;;22.80;99.90;;;;;;5080082;28;20573;-72
2023/07/18 10:59:14;;;;;;;2.05;0.60;;;22.90;99.90;;;;;;5073813;28;20473;-71
2023/07/18 11:01:40;;;;;;;2.05;0.90;;;23.00;99.90;;;;;;5084418;28;20017;-72
2023/07/18 11:04:07;;;;;;;1.95;0.68;;;23.40;99.90;;;;;;5079128;28;20016;-72
2023/07/18 11:06:34;;;;;;;2.33;0.70;;;23.60;99.90;;;;;;5082997;28;20039;-72
2023/07/18 11:08:59;;;;;;;1.92;0.57;;;23.60;99.90;;;;;;5082230;28;20107;-71
2023/07/18 11:11:25;;;;;;;2.42;0.60;;;23.80;99.90;;;;;;5075431;28;20095;-72
2023/07/18 11:13:51;;;;;;;2.80;1.33;;;24.10;99.90;;;;;;5082344;28;20047;-73
2023/07/18 11:16:16;;;;;;;4.93;0.93;;;24.20;99.90;;;;;;5079475;28;20025;-72
2023/07/18 11:18:44;;;;;;;3.53;0.80;;;24.20;99.90;;;;;;5085743;28;20504;-73
2023/07/18 11:21:12;;;;;;;2.15;0.80;;;24.40;99.90;;;;;;5076747;28;20028;-72
2023/07/18 11:23:40;;;;;;;1.42;0.70;;;24.70;99.90;;;;;;5078423;28;20050;-71
2023/07/18 11:26:12;;;;;;;3.35;1.00;;;24.80;99.90;;;;;;5081001;28;20047;-72
2023/07/18 11:28:39;;;;;;;1.90;0.80;;;25.00;99.90;;;;;;5085936;28;20024;-72
2023/07/18 11:31:05;;;;;;;1.67;0.73;;;25.00;99.90;;;;;;5081464;28;20024;-71
2023/07/18 11:33:34;;;;;;;1.70;0.80;;;25.10;99.90;;;;;;5079672;28;20055;-72
2023/07/18 11:36:01;;;;;;;2.28;0.85;;;25.20;99.90;;;;;;5074402;28;20017;-71
2023/07/18 11:38:29;;;;;;;3.83;0.82;;;25.40;99.90;;;;;;5084820;28;20103;-71
2023/07/18 11:40:55;;;;;;;1.83;0.80;;;25.30;99.90;;;;;;5079095;28;20564;-73
2023/07/18 11:43:20;;;;;;;1.00;0.70;;;25.50;99.90;;;;;;5083351;28;20020;-75
2023/07/18 11:45:47;;;;;;;3.22;0.80;;;25.60;99.90;;;;;;5077284;28;20123;-72
2023/07/18 11:48:13;;;;;;;3.28;0.85;;;25.70;99.90;;;;;;5079476;28;20031;-72
2023/07/18 11:50:43;;;;;;;2.88;0.77;;;25.60;99.90;;;;;;5077911;28;20046;-72
2023/07/18 11:53:10;;;;;;;1.38;0.90;;;25.70;99.90;;;;;;5084445;28;20032;-72
2023/07/18 11:55:36;;;;;;;2.53;0.93;;;25.90;99.90;;;;;;5078923;28;20069;-72
2023/07/18 11:58:07;;;;;;;5.55;1.08;;;26.00;99.90;;;;;;5079960;28;20447;-71
2023/07/18 12:00:35;;;;;;;1.03;0.70;;;25.90;99.90;;;;;;5074182;28;20028;-71
2023/07/18 12:03:01;;;;;;;2.10;1.02;;;26.00;99.90;;;;;;5076387;28;20282;-72
2023/07/18 12:05:26;;;;;;;1.67;0.80;;;25.70;99.90;;;;;;5080943;28;20089;-71
2023/07/18 12:07:52;;;;;;;2.60;0.98;;;26.00;99.90;;;;;;5078389;28;20511;-71
2023/07/18 12:10:18;;;;;;;3.85;1.23;;;25.90;99.90;;;;;;5081226;28;20020;-72
2023/07/18 12:12:44;;;;;;;1.52;0.93;;;25.80;99.90;;;;;;5078422;28;20404;-72
2023/07/18 12:15:11;;;;;;;4.05;1.08;;;26.00;99.90;;;;;;5081650;28;20023;-72
2023/07/18 12:17:38;;;;;;;1.75;0.77;;;25.90;99.90;;;;;;5080981;28;20480;-72
2023/07/18 12:20:05;;;;;;;2.67;1.20;;;26.10;99.90;;;;;;5078688;28;20150;-72
2023/07/18 12:22:31;;;;;;;2.05;1.20;;;26.00;99.90;;;;;;5077442;28;20016;-72
2023/07/18 12:24:57;;;;;;;10.75;2.05;;;26.00;99.90;;;;;;5084688;28;20027;-72
2023/07/18 12:27:23;;;;;;;3.03;1.20;;;26.30;99.90;;;;;;5078295;28;20028;-73
2023/07/18 12:29:49;;;;;;;4.30;1.40;;;26.40;99.90;;;;;;5086841;28;20043;-73
2023/07/18 12:32:14;;;;;;;3.03;1.50;;;26.40;99.90;;;;;;5081321;28;20079;-72
2023/07/18 12:34:40;;;;;;;3.22;1.50;;;26.60;99.90;;;;;;5079927;28;20027;-71
2023/07/18 12:37:07;;;;;;;2.97;1.48;;;26.60;99.90;;;;;;5080413;28;20035;-71
2023/07/18 12:39:33;;;;;;;5.00;1.50;;;26.40;99.90;;;;;;5079727;28;20480;-70
2023/07/18 12:41:59;;;;;;;2.15;1.50;;;26.50;99.90;;;;;;5081060;28;20031;-71